Portland, Oregon
Traffic Map
Current Weather Conditions
Portland, Oregon
Clear
Clear
79°
Feels Like: 79°
Wind Chill: 79° Ceiling: Unl
Heat Index: 79° Visibility: 10mi
Dew Point: 43° Wind: 14mph
Humidity: 28% Direction: 330° (NNW)
Pressure: 30.11in Gusts: 22mph
Raw Report DataKPDX 230153Z 33012G19KT 10SM CLR 26/06 A3011 RMK AO2 SLP197 T02610061
Traffic Incident Summary
Active as of:
Severity:
Category:
InformationThere was an issue retrieving the traffic information for this location. Please try a different location or try again shortly.
Advertisements
Track Severe Weather on mobile